Terminal Aerodrome Forecast
Issued by NWS

Home | Current Version | Previous Version | Text Only | Print | Product List | Glossary On
Versions: 1 2 3 4 5 6 7 8 9 10 11 12
861
FTPA31 PHFO 200542
TAFHMK
TAF
PHMK 200542Z 2006/2106 02008KT P6SM FEW025 SCT035
      TEMPO 2006/2009 02008G12KT
     FM202000 01008KT P6SM FEW025 BKN035
      TEMPO 2100/2104 01008G16KT=

USA.gov is the U.S. government's official web portal to all federal, state and local government web resources and services.